createdAt,value
2019-02-06T00:02:14.112Z,67.10
2019-02-06T00:04:44.620Z,57.80
2019-02-06T00:07:15.100Z,56.05
2019-02-06T00:09:45.655Z,67.87
2019-02-06T00:12:16.132Z,61.75
2019-02-06T00:14:46.663Z,81.05
2019-02-06T00:17:17.222Z,63.08
2019-02-06T00:19:47.849Z,65.62
2019-02-06T00:22:18.338Z,61.73
2019-02-06T00:24:48.940Z,59.67
2019-02-06T00:27:19.453Z,56.35
2019-02-06T00:29:49.955Z,56.05
2019-02-06T00:32:20.535Z,58.20
2019-02-06T00:34:51.017Z,57.43
2019-02-06T00:37:21.525Z,65.85
2019-02-06T00:39:52.044Z,57.98
2019-02-06T00:42:22.741Z,66.22
2019-02-06T00:44:53.256Z,60.98
2019-02-06T00:47:23.810Z,60.80
2019-02-06T00:49:54.322Z,53.73
2019-02-06T00:52:24.932Z,55.80
2019-02-06T00:54:55.903Z,56.53
2019-02-06T00:57:26.392Z,52.78
2019-02-06T00:59:58.619Z,59.63
2019-02-06T01:02:29.318Z,64.53
2019-02-06T01:04:59.806Z,54.58
2019-02-06T01:07:30.287Z,54.13
2019-02-06T01:10:00.817Z,49.23
2019-02-06T01:12:31.295Z,58.25
2019-02-06T01:15:01.761Z,51.35
2019-02-06T01:17:32.378Z,58.68
2019-02-06T01:20:03.777Z,49.30
2019-02-06T01:22:34.740Z,57.75
2019-02-06T01:25:06.984Z,51.13
2019-02-06T01:27:37.462Z,54.80
2019-02-06T01:30:15.874Z,54.38
2019-02-06T01:32:46.358Z,47.27
2019-02-06T01:35:17.306Z,59.85
2019-02-06T01:37:47.995Z,45.43
2019-02-06T01:40:19.922Z,59.65
2019-02-06T01:42:50.471Z,46.67
2019-02-06T01:45:21.689Z,52.13
2019-02-06T01:47:52.270Z,57.03
2019-02-06T01:50:22.828Z,52.90
2019-02-06T01:52:53.326Z,56.57
2019-02-06T01:55:23.838Z,48.68
2019-02-06T01:57:54.340Z,58.30
2019-02-06T02:00:25.445Z,54.42
2019-02-06T02:02:56.301Z,48.63
2019-02-06T02:05:26.835Z,57.53
2019-02-06T02:07:57.336Z,50.63
2019-02-06T02:10:27.818Z,51.80
2019-02-06T02:12:58.308Z,54.33
2019-02-06T02:15:28.864Z,57.45
2019-02-06T02:17:59.504Z,53.40
2019-02-06T02:20:30.021Z,48.35
2019-02-06T02:23:00.493Z,47.00
2019-02-06T02:25:30.993Z,48.42
2019-02-06T02:28:01.446Z,47.65
2019-02-06T02:30:43.149Z,49.87
2019-02-06T02:33:13.615Z,44.67
2019-02-06T02:35:44.208Z,48.95
2019-02-06T02:38:14.669Z,47.48
2019-02-06T02:40:45.144Z,49.33
2019-02-06T02:43:15.762Z,57.78
2019-02-06T02:45:46.291Z,51.90
2019-02-06T02:48:16.871Z,45.70
2019-02-06T02:50:47.389Z,62.67
2019-02-06T02:53:17.891Z,51.37
2019-02-06T02:55:48.375Z,52.75
2019-02-06T02:58:18.895Z,59.35
2019-02-06T03:01:08.972Z,52.60
2019-02-06T03:03:50.535Z,57.58
2019-02-06T03:06:28.319Z,59.40
2019-02-06T03:08:53.229Z,61.10
2019-02-06T03:11:23.729Z,57.33
2019-02-06T03:13:54.315Z,58.80
2019-02-06T03:16:24.811Z,60.67
2019-02-06T03:18:55.277Z,59.90
2019-02-06T03:21:25.774Z,63.02
2019-02-06T03:23:56.363Z,65.60
2019-02-06T03:26:26.923Z,63.75
2019-02-06T03:28:57.406Z,71.50
2019-02-06T03:31:28.256Z,70.73
2019-02-06T03:33:58.707Z,66.55
2019-02-06T03:36:39.851Z,71.02
2019-02-06T03:39:01.367Z,81.80
2019-02-06T03:41:31.900Z,78.40
2019-02-06T03:44:02.397Z,79.67
2019-02-06T03:46:32.901Z,73.30
2019-02-06T03:49:03.392Z,76.87
2019-02-06T03:51:33.927Z,79.85
2019-02-06T03:54:04.685Z,87.80
2019-02-06T03:56:35.148Z,78.07
2019-02-06T03:59:06.063Z,71.75
2019-02-06T04:01:36.509Z,78.00
2019-02-06T04:04:06.990Z,82.65
2019-02-06T04:06:37.479Z,83.17
2019-02-06T04:09:10.024Z,75.85
2019-02-06T04:11:40.538Z,81.97
2019-02-06T04:14:11.044Z,77.32
2019-02-06T04:16:41.510Z,87.05
2019-02-06T04:19:12.204Z,78.10
2019-02-06T04:21:42.716Z,82.85
2019-02-06T04:24:32.157Z,92.08
2019-02-06T04:27:02.641Z,77.00
2019-02-06T04:29:33.100Z,73.07
2019-02-06T04:32:03.571Z,83.03
2019-02-06T04:34:34.067Z,87.10
2019-02-06T04:37:06.935Z,81.08
2019-02-06T04:39:37.041Z,80.75
2019-02-06T04:42:07.527Z,73.47
2019-02-06T04:44:38.025Z,78.22
2019-02-06T04:47:08.477Z,69.77
2019-02-06T04:49:38.989Z,79.85
2019-02-06T04:52:09.490Z,75.20
2019-02-06T04:54:39.967Z,84.83
2019-02-06T04:57:10.453Z,70.65
2019-02-06T04:59:40.975Z,76.12
2019-02-06T05:02:11.477Z,70.32
2019-02-06T05:04:42.332Z,80.10
2019-02-06T05:07:19.495Z,73.72
2019-02-06T05:09:45.115Z,73.20
2019-02-06T05:12:15.589Z,86.25
2019-02-06T05:14:46.073Z,80.87
2019-02-06T05:17:16.550Z,83.92
2019-02-06T05:19:47.110Z,77.92
2019-02-06T05:22:17.572Z,71.67
2019-02-06T05:24:47.969Z,83.35
2019-02-06T05:27:18.479Z,77.30
2019-02-06T05:29:48.956Z,79.67
2019-02-06T05:32:19.479Z,78.78
2019-02-06T05:34:50.019Z,77.92
2019-02-06T05:37:31.566Z,76.60
2019-02-06T05:39:54.321Z,71.70
2019-02-06T05:42:24.810Z,75.83
2019-02-06T05:44:55.498Z,72.97
2019-02-06T05:47:26.143Z,71.55
2019-02-06T05:49:56.688Z,72.72
2019-02-06T05:52:27.133Z,72.95
2019-02-06T05:54:57.665Z,72.78
2019-02-06T05:57:28.229Z,73.50
2019-02-06T05:59:58.720Z,69.97
2019-02-06T06:02:29.203Z,75.53
2019-02-06T06:04:59.695Z,70.80
2019-02-06T06:07:30.159Z,64.92
2019-02-06T06:10:00.653Z,56.55
2019-02-06T06:12:31.109Z,66.47
2019-02-06T06:15:01.791Z,72.97
2019-02-06T06:17:32.333Z,66.97
2019-02-06T06:20:02.862Z,65.40
2019-02-06T06:22:33.339Z,69.30
2019-02-06T06:25:03.957Z,70.80
2019-02-06T06:27:34.412Z,69.37
2019-02-06T06:30:06.519Z,65.33
2019-02-06T06:32:37.027Z,68.12
2019-02-06T06:35:08.625Z,67.05
2019-02-06T06:37:41.448Z,68.02
2019-02-06T06:40:18.293Z,59.30
2019-02-06T06:42:49.328Z,65.17
2019-02-06T06:45:22.637Z,61.88
2019-02-06T06:47:53.086Z,61.95
2019-02-06T06:50:24.986Z,61.75
2019-02-06T06:52:55.816Z,69.12
2019-02-06T06:55:26.544Z,64.40
2019-02-06T06:57:57.033Z,60.50
2019-02-06T07:00:30.009Z,61.88
2019-02-06T07:03:01.069Z,59.53
2019-02-06T07:05:31.510Z,60.98
2019-02-06T07:08:09.200Z,59.53
2019-02-06T07:10:34.162Z,67.83
2019-02-06T07:13:04.679Z,56.98
2019-02-06T07:15:36.253Z,55.90
2019-02-06T07:18:06.840Z,49.05
2019-02-06T07:20:37.356Z,58.63
2019-02-06T07:23:07.870Z,54.73
2019-02-06T07:25:38.333Z,48.98
2019-02-06T07:28:08.799Z,52.70
2019-02-06T07:30:39.291Z,57.27
2019-02-06T07:33:09.755Z,57.85
2019-02-06T07:35:40.605Z,47.85
2019-02-06T07:38:16.971Z,58.65
2019-02-06T07:40:43.343Z,54.48
2019-02-06T07:43:13.852Z,57.00
2019-02-06T07:45:44.390Z,52.53
2019-02-06T07:48:14.855Z,55.73
2019-02-06T07:50:45.301Z,54.65
2019-02-06T07:53:16.037Z,46.60
2019-02-06T07:55:46.581Z,44.42
2019-02-06T07:58:17.095Z,52.43
2019-02-06T08:00:47.630Z,46.00
2019-02-06T08:03:18.530Z,48.38
2019-02-06T08:05:49.028Z,49.75
2019-02-06T08:08:19.536Z,46.33
2019-02-06T08:10:49.991Z,47.60
2019-02-06T08:13:20.472Z,38.95
2019-02-06T08:15:51.037Z,48.37
2019-02-06T08:18:21.769Z,47.55
2019-02-06T08:20:52.233Z,37.25
2019-02-06T08:23:22.745Z,42.53
2019-02-06T08:25:53.228Z,35.45
2019-02-06T08:28:25.175Z,40.65
2019-02-06T08:30:56.079Z,41.13
2019-02-06T08:33:26.566Z,44.63
2019-02-06T08:35:57.012Z,39.60
2019-02-06T08:38:27.575Z,35.43
2019-02-06T08:40:58.045Z,37.75
2019-02-06T08:43:28.590Z,38.10
2019-02-06T08:45:59.107Z,39.10
2019-02-06T08:48:29.637Z,37.88
2019-02-06T08:51:00.133Z,33.18
2019-02-06T08:53:31.045Z,34.45
2019-02-06T08:56:01.576Z,34.98
2019-02-06T08:58:33.065Z,37.43
2019-02-06T09:01:03.579Z,34.78
2019-02-06T09:03:34.062Z,28.80
2019-02-06T09:06:04.566Z,28.45
2019-02-06T09:08:35.051Z,28.57
2019-02-06T09:11:05.592Z,31.97
2019-02-06T09:13:36.259Z,30.68
2019-02-06T09:16:06.893Z,25.37
2019-02-06T09:18:37.359Z,35.70
2019-02-06T09:21:07.883Z,24.57
2019-02-06T09:23:38.372Z,29.48
2019-02-06T09:26:09.020Z,25.75
2019-02-06T09:28:39.459Z,26.50
2019-02-06T09:31:10.155Z,27.65
2019-02-06T09:33:40.602Z,22.37
2019-02-06T09:36:11.096Z,26.93
2019-02-06T09:38:41.609Z,23.98
2019-02-06T09:41:12.372Z,25.85
2019-02-06T09:43:42.837Z,24.70
2019-02-06T09:46:13.348Z,23.47
2019-02-06T09:48:43.807Z,24.77
2019-02-06T09:51:14.294Z,22.82
2019-02-06T09:53:44.877Z,21.73
2019-02-06T09:56:15.370Z,22.00
2019-02-06T09:58:45.746Z,21.35
2019-02-06T10:01:16.280Z,23.80
2019-02-06T10:03:47.104Z,19.83
2019-02-06T10:06:17.668Z,22.50
2019-02-06T10:08:48.534Z,23.02
2019-02-06T10:11:19.005Z,18.02
2019-02-06T10:13:49.559Z,20.25
2019-02-06T10:16:20.360Z,14.68
2019-02-06T10:18:50.960Z,23.70
2019-02-06T10:21:21.395Z,18.15
2019-02-06T10:23:52.009Z,17.90
2019-02-06T10:26:22.476Z,20.75
2019-02-06T10:28:53.099Z,17.17
2019-02-06T10:31:23.631Z,18.10
2019-02-06T10:33:54.135Z,14.27
2019-02-06T10:36:24.610Z,15.10
2019-02-06T10:38:55.093Z,16.67
2019-02-06T10:41:25.551Z,15.93
2019-02-06T10:43:56.015Z,15.03
2019-02-06T10:46:26.555Z,16.20
2019-02-06T10:48:57.066Z,15.53
2019-02-06T10:51:27.685Z,17.42
2019-02-06T10:53:58.206Z,14.75
2019-02-06T10:56:28.695Z,18.70
2019-02-06T10:58:59.196Z,17.98
2019-02-06T11:01:29.735Z,17.87
2019-02-06T11:04:00.240Z,15.75
2019-02-06T11:06:30.696Z,17.65
2019-02-06T11:09:01.195Z,18.60
2019-02-06T11:11:31.638Z,17.50
2019-02-06T11:14:02.184Z,19.70
2019-02-06T11:16:32.689Z,19.00
2019-02-06T11:19:03.457Z,19.50
2019-02-06T11:21:33.959Z,20.32
2019-02-06T11:24:04.488Z,18.55
2019-02-06T11:26:34.974Z,17.25
2019-02-06T11:29:05.802Z,19.23
2019-02-06T11:31:36.316Z,16.70
2019-02-06T11:34:06.860Z,17.50
2019-02-06T11:36:37.356Z,21.95
2019-02-06T11:39:19.694Z,17.48
2019-02-06T11:41:50.168Z,17.67
2019-02-06T11:44:20.851Z,17.30
2019-02-06T11:46:51.326Z,17.48
2019-02-06T11:49:25.882Z,20.20
2019-02-06T11:51:56.390Z,20.35
2019-02-06T11:54:26.890Z,20.23
2019-02-06T11:56:57.667Z,19.90
2019-02-06T11:59:28.164Z,21.03
2019-02-06T12:01:58.731Z,29.55
2019-02-06T12:04:29.195Z,18.83
2019-02-06T12:06:59.731Z,14.68
2019-02-06T12:09:30.180Z,22.23
2019-02-06T12:12:00.990Z,28.73
2019-02-06T12:14:31.408Z,24.75
2019-02-06T12:17:01.896Z,20.95
2019-02-06T12:19:32.393Z,24.40
2019-02-06T12:22:02.939Z,19.32
2019-02-06T12:24:33.329Z,20.60
2019-02-06T12:27:03.788Z,19.12
2019-02-06T12:29:34.269Z,20.30
2019-02-06T12:32:05.032Z,23.90
2019-02-06T12:34:35.483Z,21.90
2019-02-06T12:37:05.979Z,23.38
2019-02-06T12:39:36.448Z,22.32
2019-02-06T12:42:07.913Z,22.40
2019-02-06T12:44:38.483Z,23.92
2019-02-06T12:47:08.926Z,20.95
2019-02-06T12:49:39.441Z,23.20
2019-02-06T12:52:09.964Z,19.70
2019-02-06T12:54:40.467Z,18.65
2019-02-06T12:57:11.115Z,22.57
2019-02-06T12:59:41.631Z,22.30
2019-02-06T13:02:12.112Z,23.23
2019-02-06T13:04:42.585Z,23.50
2019-02-06T13:07:13.097Z,21.93
2019-02-06T13:09:43.567Z,23.60
2019-02-06T13:12:14.021Z,27.82
2019-02-06T13:14:44.421Z,17.85
2019-02-06T13:17:14.918Z,22.80
2019-02-06T13:19:45.398Z,22.50
2019-02-06T13:22:15.941Z,28.05
2019-02-06T13:24:46.697Z,21.12
2019-02-06T13:27:17.178Z,28.15
2019-02-06T13:29:47.697Z,24.45
2019-02-06T13:32:18.126Z,25.10
2019-02-06T13:34:48.616Z,20.30
2019-02-06T13:37:19.343Z,25.90
2019-02-06T13:39:49.862Z,26.23
2019-02-06T13:42:20.335Z,24.40
2019-02-06T13:44:50.826Z,28.70
2019-02-06T13:47:40.349Z,22.80
2019-02-06T13:50:21.540Z,26.33
2019-02-06T13:52:44.661Z,27.00
2019-02-06T13:55:15.984Z,23.95
2019-02-06T13:57:46.605Z,26.02
2019-02-06T14:00:20.907Z,18.65
2019-02-06T14:02:51.985Z,20.15
2019-02-06T14:05:25.963Z,25.60
2019-02-06T14:08:09.002Z,28.02
2019-02-06T14:10:39.536Z,25.23
2019-02-06T14:13:10.988Z,24.53
2019-02-06T14:15:44.228Z,26.95
2019-02-06T14:18:14.873Z,23.35
2019-02-06T14:20:47.159Z,21.75
2019-02-06T14:23:50.374Z,25.90
2019-02-06T14:26:55.093Z,22.65
2019-02-06T14:30:12.311Z,15.43
2019-02-06T14:33:41.981Z,22.77
2019-02-06T14:37:08.065Z,23.60
2019-02-06T14:40:22.216Z,30.17
2019-02-06T14:43:36.369Z,31.15
2019-02-06T14:46:50.634Z,25.43
2019-02-06T14:50:23.788Z,24.12
2019-02-06T14:53:36.865Z,20.20
2019-02-06T14:57:05.089Z,22.87
2019-02-06T15:00:22.471Z,21.33
2019-02-06T15:03:49.569Z,22.50
2019-02-06T15:07:19.017Z,23.43
2019-02-06T15:10:43.106Z,18.95
2019-02-06T15:14:22.971Z,26.27
2019-02-06T15:17:48.158Z,28.75
2019-02-06T15:21:01.630Z,22.20
2019-02-06T15:24:59.995Z,30.00
2019-02-06T15:28:18.852Z,23.10
2019-02-06T15:31:52.381Z,26.93
2019-02-06T15:35:12.533Z,27.02
2019-02-06T15:38:58.261Z,29.75
2019-02-06T15:42:14.651Z,27.83
2019-02-06T15:45:27.175Z,22.40
2019-02-06T15:48:36.273Z,21.68
2019-02-06T15:52:28.844Z,26.33
2019-02-06T15:56:14.431Z,25.55
2019-02-06T15:59:23.258Z,26.33
2019-02-06T16:02:47.495Z,26.52
2019-02-06T16:05:54.158Z,24.12
2019-02-06T16:09:20.779Z,28.05
2019-02-06T16:12:33.688Z,19.70
2019-02-06T16:15:30.707Z,27.95
2019-02-06T16:18:45.732Z,23.20
2019-02-06T16:22:37.350Z,23.52
2019-02-06T16:25:48.349Z,28.10
2019-02-06T16:29:02.462Z,27.07
2019-02-06T16:32:12.513Z,30.37
2019-02-06T16:35:23.189Z,30.05
2019-02-06T16:38:42.879Z,29.00
2019-02-06T16:42:01.198Z,27.40
2019-02-06T16:45:16.583Z,27.07
2019-02-06T16:49:05.031Z,29.07
2019-02-06T16:52:06.928Z,35.63
2019-02-06T16:55:23.067Z,26.07
2019-02-06T16:58:50.928Z,29.95
2019-02-06T17:02:16.110Z,31.35
2019-02-06T17:05:42.191Z,31.68
2019-02-06T17:09:09.032Z,24.92
2019-02-06T17:12:15.518Z,28.02
2019-02-06T17:16:07.220Z,39.40
2019-02-06T17:19:21.037Z,29.32
2019-02-06T17:23:17.905Z,27.22
2019-02-06T17:26:30.474Z,27.00
2019-02-06T17:29:49.494Z,25.43
2019-02-06T17:33:04.424Z,28.02
2019-02-06T17:36:58.847Z,30.43
2019-02-06T17:40:21.186Z,29.57
2019-02-06T17:44:01.773Z,30.90
2019-02-06T17:47:27.386Z,23.15
2019-02-06T17:50:48.698Z,27.93
2019-02-06T17:54:08.186Z,26.77
2019-02-06T17:56:38.954Z,30.27
2019-02-06T17:59:09.413Z,30.73
2019-02-06T18:01:51.119Z,29.57
2019-02-06T18:04:25.909Z,27.77
2019-02-06T18:06:57.608Z,32.57
2019-02-06T18:09:28.164Z,34.27
2019-02-06T18:11:58.652Z,25.33
2019-02-06T18:14:29.207Z,30.97
2019-02-06T18:17:00.956Z,36.87
2019-02-06T18:19:36.905Z,33.83
2019-02-06T18:22:09.134Z,29.57
2019-02-06T18:24:39.642Z,34.03
2019-02-06T18:27:11.971Z,35.38
2019-02-06T18:29:42.784Z,39.48
2019-02-06T18:32:13.376Z,31.95
2019-02-06T18:34:44.156Z,33.95
2019-02-06T18:37:14.645Z,37.40
2019-02-06T18:39:45.319Z,36.68
2019-02-06T18:42:15.816Z,36.53
2019-02-06T18:44:46.301Z,36.50
2019-02-06T18:47:16.786Z,35.38
2019-02-06T18:49:47.691Z,34.92
2019-02-06T18:52:20.418Z,40.17
2019-02-06T18:54:50.428Z,35.85
2019-02-06T18:57:20.977Z,34.30
2019-02-06T18:59:51.470Z,37.95
2019-02-06T19:02:22.128Z,39.10
2019-02-06T19:04:52.648Z,38.65
2019-02-06T19:07:23.747Z,40.10
2019-02-06T19:09:54.292Z,38.13
2019-02-06T19:12:24.903Z,35.17
2019-02-06T19:14:58.621Z,34.48
2019-02-06T19:17:28.223Z,41.48
2019-02-06T19:19:58.751Z,38.60
2019-02-06T19:22:29.569Z,36.25
2019-02-06T19:25:00.148Z,31.42
2019-02-06T19:27:30.791Z,34.92
2019-02-06T19:30:01.354Z,29.72
2019-02-06T19:32:31.857Z,41.35
2019-02-06T19:35:02.386Z,38.30
2019-02-06T19:37:35.156Z,34.30
2019-02-06T19:40:06.295Z,33.50
2019-02-06T19:42:36.857Z,35.95
2019-02-06T19:45:08.171Z,30.75
2019-02-06T19:47:38.718Z,32.13
2019-02-06T19:50:23.782Z,37.80
2019-02-06T19:52:54.781Z,30.88
2019-02-06T19:55:25.403Z,37.67
2019-02-06T19:57:55.959Z,39.83
2019-02-06T20:00:29.179Z,31.07
2019-02-06T20:02:59.665Z,35.15
2019-02-06T20:05:30.575Z,35.17
2019-02-06T20:08:01.099Z,35.52
2019-02-06T20:10:35.188Z,33.70
2019-02-06T20:13:12.364Z,31.07
2019-02-06T20:15:38.366Z,31.48
2019-02-06T20:18:09.054Z,35.70
2019-02-06T20:20:39.664Z,31.37
2019-02-06T20:23:10.192Z,33.40
2019-02-06T20:25:40.729Z,36.50
2019-02-06T20:28:11.337Z,35.83
2019-02-06T20:30:41.902Z,38.85
2019-02-06T20:33:12.427Z,36.68
2019-02-06T20:35:42.956Z,39.33
2019-02-06T20:38:13.552Z,43.08
2019-02-06T20:40:44.119Z,42.35
2019-02-06T20:43:21.466Z,42.90
2019-02-06T20:45:46.961Z,40.43
2019-02-06T20:48:17.441Z,42.05
2019-02-06T20:50:47.974Z,43.38
2019-02-06T20:53:18.497Z,40.73
2019-02-06T20:55:49.038Z,42.78
2019-02-06T20:58:19.534Z,37.35
2019-02-06T21:00:50.063Z,43.83
2019-02-06T21:03:20.514Z,41.70
2019-02-06T21:05:51.072Z,35.52
2019-02-06T21:08:21.576Z,33.65
2019-02-06T21:10:52.099Z,43.90
2019-02-06T21:13:32.477Z,41.42
2019-02-06T21:15:54.840Z,47.15
2019-02-06T21:18:25.664Z,41.50
2019-02-06T21:20:56.228Z,43.33
2019-02-06T21:23:26.690Z,41.25
2019-02-06T21:25:57.194Z,40.45
2019-02-06T21:28:27.715Z,37.73
2019-02-06T21:30:58.213Z,37.10
2019-02-06T21:33:28.697Z,31.00
2019-02-06T21:35:59.197Z,34.73
2019-02-06T21:38:29.706Z,33.28
2019-02-06T21:41:00.236Z,37.30
2019-02-06T21:43:30.738Z,44.25
2019-02-06T21:46:01.674Z,40.78
2019-02-06T21:48:32.177Z,37.93
2019-02-06T21:51:02.670Z,37.58
2019-02-06T21:53:34.801Z,40.13
2019-02-06T21:56:05.720Z,37.38
2019-02-06T21:58:36.220Z,38.50
2019-02-06T22:01:06.716Z,40.33
2019-02-06T22:03:37.205Z,41.43
2019-02-06T22:06:07.718Z,42.98
2019-02-06T22:08:38.183Z,47.95
2019-02-06T22:11:09.003Z,42.20
2019-02-06T22:13:39.558Z,38.85
2019-02-06T22:16:10.086Z,43.80
2019-02-06T22:18:40.600Z,45.63
2019-02-06T22:21:11.083Z,47.03
2019-02-06T22:23:41.554Z,45.40
2019-02-06T22:26:12.363Z,53.23
2019-02-06T22:28:43.435Z,52.85
2019-02-06T22:31:13.955Z,60.80
2019-02-06T22:33:44.486Z,54.33
2019-02-06T22:36:14.937Z,57.27
2019-02-06T22:38:45.435Z,56.85
2019-02-06T22:41:15.964Z,60.65
2019-02-06T22:43:46.483Z,63.02
2019-02-06T22:46:17.008Z,67.00
2019-02-06T22:48:47.611Z,61.55
2019-02-06T22:51:18.111Z,57.45
2019-02-06T22:53:48.917Z,55.60
2019-02-06T22:56:19.425Z,50.67
2019-02-06T22:58:49.951Z,51.40
2019-02-06T23:01:52.134Z,58.48
2019-02-06T23:04:22.654Z,56.05
2019-02-06T23:06:53.143Z,62.00
2019-02-06T23:09:23.707Z,55.12
2019-02-06T23:11:54.280Z,56.47
2019-02-06T23:14:24.787Z,51.35
2019-02-06T23:16:55.322Z,57.73
2019-02-06T23:19:25.799Z,55.80
2019-02-06T23:21:56.292Z,53.87
2019-02-06T23:24:26.808Z,62.62
2019-02-06T23:26:57.320Z,53.33
2019-02-06T23:29:27.779Z,57.53
2019-02-06T23:31:58.301Z,49.73
2019-02-06T23:34:28.777Z,53.90
2019-02-06T23:36:59.346Z,54.53
2019-02-06T23:39:29.881Z,53.90
2019-02-06T23:42:00.724Z,58.23
2019-02-06T23:44:31.133Z,51.48
2019-02-06T23:47:01.686Z,62.00
2019-02-06T23:49:32.174Z,58.65
2019-02-06T23:52:02.661Z,53.87
2019-02-06T23:54:33.211Z,55.00
2019-02-06T23:57:03.757Z,57.17
2019-02-06T23:59:34.253Z,55.80
